Nautilass — ZGFE6 — position and weather

sailwx.info

Track history (hours):
 
Tides and Currents Weather Stations Pressure Air Temp Water Temp Dewpoint Dewpoint Depression Visibility Wind Speed Wind Dir Waves Ship Positions

Nautilass

Last reported at 2017-Oct-16 08:34 UTC. Time now 2017-Nov-19 16:16 UTC.
Position N 45°19' E 014°25'.
Warning: this ship's position is 34 days out of date.

Length 34 m; draft 2.5 m.

Type: Pleasure craft. MMSI: 319087800.

Date/timePositionNaut miles runAvg speedWind from/ knotsBaromVisibWave heightAir tempDewpointWater temp
2017-Oct-16 08:34N 45°19' E 014°25'312.0
2017-Oct-16 08:18N 45°16' E 014°24'512.0
2017-Oct-16 07:51N 45°10' E 014°25'  
2017-Oct-12 20:25N 37°54' E 015°51'510.9
2017-Oct-12 19:57N 37°54' E 015°45'510.5
2017-Oct-12 19:30N 37°56' E 015°40'510.1
2017-Oct-12 19:00N 38°01' E 015°37'510.2
2017-Oct-12 18:30N 38°06' E 015°35'611.6
2017-Oct-12 18:00N 38°11' E 015°36'510.7
2017-Oct-12 17:30N 38°16' E 015°39'510.1
2017-Oct-12 17:00N 38°19' E 015°34'510.5
2017-Oct-12 16:29N 38°19' E 015°27'510.4
2017-Oct-12 16:00N 38°20' E 015°21'610.3
2017-Oct-12 15:23N 38°20' E 015°13'410.2
2017-Oct-12 15:00N 38°21' E 015°08'7410.1
2017-Oct-12 07:39N 38°28' E 013°34'310.4
2017-Oct-12 07:23N 38°28' E 013°31'410.5
2017-Oct-12 07:00N 38°29' E 013°25'510.5
2017-Oct-12 06:30N 38°29' E 013°19'610.4
2017-Oct-12 05:53N 38°30' E 013°10'410.4
2017-Oct-12 05:27N 38°30' E 013°05'48210.2
2017-Oct-10 06:22N 39°20' E 002°48'410.3
2017-Oct-10 06:00N 39°22' E 002°44'510.4
2017-Oct-10 05:30N 39°24' E 002°38'610.4
2017-Oct-10 04:56N 39°27' E 002°31'  
2017-Oct-06 16:08N 39°28' E 002°28'2 9.8
2017-Oct-06 15:56N 39°27' E 002°31'4 9.6
2017-Oct-06 15:30N 39°31' E 002°33'1 1.3
2017-Oct-06 14:59N 39°32' E 002°34'0 0.0
2017-Oct-06 14:23N 39°32' E 002°34'0 0.0
2017-Oct-06 13:59N 39°32' E 002°34'0 0.0
2017-Oct-06 13:29N 39°32' E 002°34'0 0.0
2017-Oct-06 12:56N 39°32' E 002°34'0 0.0
2017-Oct-06 12:23N 39°32' E 002°34'0 0.0
2017-Oct-06 11:53N 39°32' E 002°34'0 0.0
2017-Oct-06 11:29N 39°32' E 002°34'0 0.0
2017-Oct-06 10:56N 39°32' E 002°34'0 0.0
2017-Oct-06 10:26N 39°32' E 002°34'0 0.0
2017-Oct-06 09:59N 39°32' E 002°34'0 0.0
2017-Oct-06 09:29N 39°32' E 002°34'0 0.0
2017-Oct-06 08:59N 39°32' E 002°34'  
Track history (hours):
 
Tides and Currents Weather Stations Pressure Air Temp Water Temp Dewpoint Dewpoint Depression Visibility Wind Speed Wind Dir Waves Ship Positions

Nautilass

Last reported at 2017-Oct-16 08:34 UTC. Time now 2017-Nov-19 16:16 UTC.
Position N 45°19' E 014°25'.
Warning: this ship's position is 34 days out of date.

Length 34 m; draft 2.5 m.

Type: Pleasure craft. MMSI: 319087800.

Date/timePositionNaut miles runAvg speedWind from/ knotsBaromVisibWave heightAir tempDewpointWater temp
2017-Oct-16 08:34N 45°19' E 014°25'312.0
2017-Oct-16 08:18N 45°16' E 014°24'512.0
2017-Oct-16 07:51N 45°10' E 014°25'  
2017-Oct-12 20:25N 37°54' E 015°51'510.9
2017-Oct-12 19:57N 37°54' E 015°45'510.5
2017-Oct-12 19:30N 37°56' E 015°40'510.1
2017-Oct-12 19:00N 38°01' E 015°37'510.2
2017-Oct-12 18:30N 38°06' E 015°35'611.6
2017-Oct-12 18:00N 38°11' E 015°36'510.7
2017-Oct-12 17:30N 38°16' E 015°39'510.1
2017-Oct-12 17:00N 38°19' E 015°34'510.5
2017-Oct-12 16:29N 38°19' E 015°27'510.4
2017-Oct-12 16:00N 38°20' E 015°21'610.3
2017-Oct-12 15:23N 38°20' E 015°13'410.2
2017-Oct-12 15:00N 38°21' E 015°08'7410.1
2017-Oct-12 07:39N 38°28' E 013°34'310.4
2017-Oct-12 07:23N 38°28' E 013°31'410.5
2017-Oct-12 07:00N 38°29' E 013°25'510.5
2017-Oct-12 06:30N 38°29' E 013°19'610.4
2017-Oct-12 05:53N 38°30' E 013°10'410.4
2017-Oct-12 05:27N 38°30' E 013°05'48210.2
2017-Oct-10 06:22N 39°20' E 002°48'410.3
2017-Oct-10 06:00N 39°22' E 002°44'510.4
2017-Oct-10 05:30N 39°24' E 002°38'610.4
2017-Oct-10 04:56N 39°27' E 002°31'  
2017-Oct-06 16:08N 39°28' E 002°28'2 9.8
2017-Oct-06 15:56N 39°27' E 002°31'4 9.6
2017-Oct-06 15:30N 39°31' E 002°33'1 1.3
2017-Oct-06 14:59N 39°32' E 002°34'0 0.0
2017-Oct-06 14:23N 39°32' E 002°34'0 0.0
2017-Oct-06 13:59N 39°32' E 002°34'0 0.0
2017-Oct-06 13:29N 39°32' E 002°34'0 0.0
2017-Oct-06 12:56N 39°32' E 002°34'0 0.0
2017-Oct-06 12:23N 39°32' E 002°34'0 0.0
2017-Oct-06 11:53N 39°32' E 002°34'0 0.0
2017-Oct-06 11:29N 39°32' E 002°34'0 0.0
2017-Oct-06 10:56N 39°32' E 002°34'0 0.0
2017-Oct-06 10:26N 39°32' E 002°34'0 0.0
2017-Oct-06 09:59N 39°32' E 002°34'0 0.0
2017-Oct-06 09:29N 39°32' E 002°34'0 0.0
2017-Oct-06 08:59N 39°32' E 002°34'  

Dump ship's entire track history